sensor_id;sensor_type;location;lat;lon;timestamp;pressure;altitude;pressure_sealevel;temperature;humidity
26087;BME280;13851;43.434;28.338;2022-12-29T00:02:00;101163.97;;;6.89;100.00
26087;BME280;13851;43.434;28.338;2022-12-29T00:04:25;101163.34;;;6.86;100.00
26087;BME280;13851;43.434;28.338;2022-12-29T00:06:52;101139.72;;;6.75;100.00
26087;BME280;13851;43.434;28.338;2022-12-29T00:09:19;101049.94;;;6.19;100.00
26087;BME280;13851;43.434;28.338;2022-12-29T00:11:44;101173.88;;;6.79;100.00
26087;BME280;13851;43.434;28.338;2022-12-29T00:14:11;100892.50;;;5.26;100.00
26087;BME280;13851;43.434;28.338;2022-12-29T00:16:56;101057.50;;;6.27;100.00
26087;BME280;13851;43.434;28.338;2022-12-29T00:19:22;100914.84;;;5.52;100.00
26087;BME280;13851;43.434;28.338;2022-12-29T00:22:09;101117.56;;;6.68;100.00
26087;BME280;13851;43.434;28.338;2022-12-29T00:24:54;101163.59;;;6.94;100.00
26087;BME280;13851;43.434;28.338;2022-12-29T00:27:38;100842.75;;;5.03;100.00
26087;BME280;13851;43.434;28.338;2022-12-29T00:30:25;101162.88;;;6.92;100.00
26087;BME280;13851;43.434;28.338;2022-12-29T00:33:20;101126.00;;;6.76;100.00
26087;BME280;13851;43.434;28.338;2022-12-29T00:36:09;101149.72;;;6.86;100.00
26087;BME280;13851;43.434;28.338;2022-12-29T00:38:39;101117.94;;;6.75;100.00
26087;BME280;13851;43.434;28.338;2022-12-29T00:41:24;101136.09;;;6.86;100.00
26087;BME280;13851;43.434;28.338;2022-12-29T00:44:11;101116.56;;;6.81;100.00
26087;BME280;13851;43.434;28.338;2022-12-29T00:46:38;101082.34;;;6.56;100.00
26087;BME280;13851;43.434;28.338;2022-12-29T00:49:05;100954.63;;;5.87;100.00
26087;BME280;13851;43.434;28.338;2022-12-29T00:51:50;100931.88;;;5.77;100.00
26087;BME280;13851;43.434;28.338;2022-12-29T00:54:16;100882.25;;;5.41;100.00
26087;BME280;13851;43.434;28.338;2022-12-29T00:56:49;100860.00;;;5.36;100.00
26087;BME280;13851;43.434;28.338;2022-12-29T00:59:15;101108.78;;;6.76;100.00
26087;BME280;13851;43.434;28.338;2022-12-29T01:01:41;100840.13;;;5.35;100.00
26087;BME280;13851;43.434;28.338;2022-12-29T01:04:07;101130.88;;;7.05;100.00
26087;BME280;13851;43.434;28.338;2022-12-29T01:06:33;101119.97;;;7.05;100.00
26087;BME280;13851;43.434;28.338;2022-12-29T01:09:00;101112.06;;;6.91;100.00
26087;BME280;13851;43.434;28.338;2022-12-29T01:11:44;101097.38;;;6.82;100.00
26087;BME280;13851;43.434;28.338;2022-12-29T01:14:09;101053.50;;;6.53;100.00
26087;BME280;13851;43.434;28.338;2022-12-29T01:16:35;100860.00;;;5.36;100.00
26087;BME280;13851;43.434;28.338;2022-12-29T01:19:02;101074.47;;;6.85;100.00
26087;BME280;13851;43.434;28.338;2022-12-29T01:21:27;101077.94;;;6.87;100.00
26087;BME280;13851;43.434;28.338;2022-12-29T01:23:53;101082.19;;;6.68;100.00
26087;BME280;13851;43.434;28.338;2022-12-29T01:26:18;101132.00;;;7.02;100.00
26087;BME280;13851;43.434;28.338;2022-12-29T01:28:44;101007.69;;;6.58;100.00
26087;BME280;13851;43.434;28.338;2022-12-29T01:31:11;101085.63;;;6.82;100.00
26087;BME280;13851;43.434;28.338;2022-12-29T01:33:38;101049.47;;;6.80;100.00
26087;BME280;13851;43.434;28.338;2022-12-29T01:36:08;101078.44;;;6.81;100.00
26087;BME280;13851;43.434;28.338;2022-12-29T01:38:36;101033.13;;;6.80;100.00
26087;BME280;13851;43.434;28.338;2022-12-29T01:41:02;101074.91;;;7.01;100.00
26087;BME280;13851;43.434;28.338;2022-12-29T01:43:53;101059.16;;;7.04;100.00
26087;BME280;13851;43.434;28.338;2022-12-29T01:46:26;101060.03;;;7.05;100.00
26087;BME280;13851;43.434;28.338;2022-12-29T01:49:18;101052.22;;;7.00;100.00
26087;BME280;13851;43.434;28.338;2022-12-29T01:51:58;100990.06;;;6.73;100.00
26087;BME280;13851;43.434;28.338;2022-12-29T01:54:30;101021.47;;;6.89;100.00
26087;BME280;13851;43.434;28.338;2022-12-29T01:57:00;101015.84;;;6.69;100.00
26087;BME280;13851;43.434;28.338;2022-12-29T01:59:34;100985.53;;;6.63;100.00
26087;BME280;13851;43.434;28.338;2022-12-29T02:02:02;101093.00;;;7.02;100.00
26087;BME280;13851;43.434;28.338;2022-12-29T02:04:30;100854.00;;;5.98;100.00
26087;BME280;13851;43.434;28.338;2022-12-29T02:07:02;101013.75;;;6.94;100.00
26087;BME280;13851;43.434;28.338;2022-12-29T02:09:30;101077.84;;;7.09;100.00
26087;BME280;13851;43.434;28.338;2022-12-29T02:11:56;101009.56;;;6.90;100.00
26087;BME280;13851;43.434;28.338;2022-12-29T02:14:23;101036.97;;;7.09;100.00
26087;BME280;13851;43.434;28.338;2022-12-29T02:20:03;101040.56;;;7.10;100.00
26087;BME280;13851;43.434;28.338;2022-12-29T02:25:39;101039.56;;;7.11;100.00
26087;BME280;13851;43.434;28.338;2022-12-29T02:31:10;100730.47;;;5.36;100.00
26087;BME280;13851;43.434;28.338;2022-12-29T02:34:05;101023.09;;;7.12;100.00
26087;BME280;13851;43.434;28.338;2022-12-29T02:36:46;101007.63;;;6.81;100.00
26087;BME280;13851;43.434;28.338;2022-12-29T02:44:26;101023.56;;;7.17;100.00
26087;BME280;13851;43.434;28.338;2022-12-29T02:47:09;101022.81;;;7.15;100.00
26087;BME280;13851;43.434;28.338;2022-12-29T02:49:44;101020.56;;;7.20;100.00
26087;BME280;13851;43.434;28.338;2022-12-29T02:52:16;101015.00;;;7.22;100.00
26087;BME280;13851;43.434;28.338;2022-12-29T02:54:43;101061.91;;;7.25;100.00
26087;BME280;13851;43.434;28.338;2022-12-29T02:57:31;101020.63;;;7.30;100.00
26087;BME280;13851;43.434;28.338;2022-12-29T03:00:01;101012.59;;;7.28;100.00
26087;BME280;13851;43.434;28.338;2022-12-29T03:05:55;101017.19;;;7.28;100.00
26087;BME280;13851;43.434;28.338;2022-12-29T03:11:00;101007.41;;;7.25;100.00
26087;BME280;13851;43.434;28.338;2022-12-29T03:13:47;101010.03;;;7.27;100.00
26087;BME280;13851;43.434;28.338;2022-12-29T03:16:57;101011.59;;;7.29;100.00
26087;BME280;13851;43.434;28.338;2022-12-29T03:19:46;101017.19;;;7.28;100.00
26087;BME280;13851;43.434;28.338;2022-12-29T03:22:19;101026.94;;;7.30;100.00
26087;BME280;13851;43.434;28.338;2022-12-29T03:25:14;101025.94;;;7.32;100.00
26087;BME280;13851;43.434;28.338;2022-12-29T03:27:48;101023.56;;;7.17;100.00
26087;BME280;13851;43.434;28.338;2022-12-29T03:30:14;100993.72;;;7.16;100.00
26087;BME280;13851;43.434;28.338;2022-12-29T03:32:45;100770.09;;;5.82;100.00
26087;BME280;13851;43.434;28.338;2022-12-29T03:35:14;101017.66;;;7.33;100.00
26087;BME280;13851;43.434;28.338;2022-12-29T03:37:45;100783.28;;;5.98;100.00
26087;BME280;13851;43.434;28.338;2022-12-29T03:40:14;100969.47;;;7.13;100.00
26087;BME280;13851;43.434;28.338;2022-12-29T03:42:41;100978.34;;;7.15;100.00
26087;BME280;13851;43.434;28.338;2022-12-29T03:45:07;100752.41;;;5.88;100.00
26087;BME280;13851;43.434;28.338;2022-12-29T03:47:33;101019.00;;;7.39;100.00
26087;BME280;13851;43.434;28.338;2022-12-29T03:49:58;101063.13;;;7.33;100.00
26087;BME280;13851;43.434;28.338;2022-12-29T03:52:24;101020.25;;;7.35;100.00
26087;BME280;13851;43.434;28.338;2022-12-29T03:54:49;101041.50;;;7.41;100.00
26087;BME280;13851;43.434;28.338;2022-12-29T03:57:15;101037.13;;;7.28;100.00
26087;BME280;13851;43.434;28.338;2022-12-29T03:59:40;101047.34;;;7.36;100.00
26087;BME280;13851;43.434;28.338;2022-12-29T04:02:05;101034.19;;;7.62;100.00
26087;BME280;13851;43.434;28.338;2022-12-29T04:04:31;101023.34;;;7.51;100.00
26087;BME280;13851;43.434;28.338;2022-12-29T04:06:56;101000.06;;;7.47;100.00
26087;BME280;13851;43.434;28.338;2022-12-29T04:09:22;100899.03;;;6.87;100.00
26087;BME280;13851;43.434;28.338;2022-12-29T04:11:47;100763.88;;;6.03;100.00
26087;BME280;13851;43.434;28.338;2022-12-29T04:14:13;101012.28;;;7.43;100.00
26087;BME280;13851;43.434;28.338;2022-12-29T04:16:38;101000.91;;;7.38;100.00
26087;BME280;13851;43.434;28.338;2022-12-29T04:19:05;100880.81;;;6.67;100.00
26087;BME280;13851;43.434;28.338;2022-12-29T04:21:31;100783.75;;;6.14;100.00
26087;BME280;13851;43.434;28.338;2022-12-29T04:23:56;101024.16;;;7.42;100.00
26087;BME280;13851;43.434;28.338;2022-12-29T04:26:22;101019.91;;;7.49;100.00
26087;BME280;13851;43.434;28.338;2022-12-29T04:28:47;101032.53;;;7.50;100.00
26087;BME280;13851;43.434;28.338;2022-12-29T04:31:13;100793.22;;;5.99;100.00
26087;BME280;13851;43.434;28.338;2022-12-29T04:33:38;101003.56;;;7.07;100.00
26087;BME280;13851;43.434;28.338;2022-12-29T04:36:04;101041.91;;;7.36;100.00
26087;BME280;13851;43.434;28.338;2022-12-29T04:38:32;100792.47;;;5.86;100.00
26087;BME280;13851;43.434;28.338;2022-12-29T04:41:01;101032.47;;;7.19;100.00
26087;BME280;13851;43.434;28.338;2022-12-29T04:43:27;101052.81;;;7.36;100.00
26087;BME280;13851;43.434;28.338;2022-12-29T04:45:53;101075.16;;;7.30;100.00
26087;BME280;13851;43.434;28.338;2022-12-29T04:48:19;101056.47;;;7.25;100.00
26087;BME280;13851;43.434;28.338;2022-12-29T04:50:47;101057.59;;;7.23;100.00
26087;BME280;13851;43.434;28.338;2022-12-29T04:53:13;101007.78;;;7.00;100.00
26087;BME280;13851;43.434;28.338;2022-12-29T04:55:38;101001.63;;;6.98;100.00
26087;BME280;13851;43.434;28.338;2022-12-29T04:58:04;101015.72;;;7.03;100.00
26087;BME280;13851;43.434;28.338;2022-12-29T05:00:29;101051.28;;;7.22;100.00
26087;BME280;13851;43.434;28.338;2022-12-29T05:02:55;101001.91;;;6.84;100.00
26087;BME280;13851;43.434;28.338;2022-12-29T05:05:20;100744.91;;;5.37;100.00
26087;BME280;13851;43.434;28.338;2022-12-29T05:07:46;100968.53;;;6.38;100.00
26087;BME280;13851;43.434;28.338;2022-12-29T05:10:11;101055.97;;;6.99;100.00
26087;BME280;13851;43.434;28.338;2022-12-29T05:12:37;101029.88;;;6.54;100.00
26087;BME280;13851;43.434;28.338;2022-12-29T05:15:05;100972.41;;;6.13;100.00
26087;BME280;13851;43.434;28.338;2022-12-29T05:20:39;101013.72;;;6.30;100.00
26087;BME280;13851;43.434;28.338;2022-12-29T05:23:05;101058.94;;;6.53;100.00
26087;BME280;13851;43.434;28.338;2022-12-29T05:25:30;100769.41;;;4.69;100.00
26087;BME280;13851;43.434;28.338;2022-12-29T05:27:56;101060.06;;;6.39;100.00
26087;BME280;13851;43.434;28.338;2022-12-29T05:30:21;101040.31;;;6.26;100.00
26087;BME280;13851;43.434;28.338;2022-12-29T05:32:47;101039.34;;;6.16;100.00
26087;BME280;13851;43.434;28.338;2022-12-29T05:35:12;100845.56;;;4.90;100.00
26087;BME280;13851;43.434;28.338;2022-12-29T05:37:38;100741.97;;;4.28;100.00
26087;BME280;13851;43.434;28.338;2022-12-29T05:40:04;101034.88;;;6.04;100.00
26087;BME280;13851;43.434;28.338;2022-12-29T05:42:29;101027.97;;;6.11;100.00
26087;BME280;13851;43.434;28.338;2022-12-29T05:44:55;100790.13;;;4.59;100.00
26087;BME280;13851;43.434;28.338;2022-12-29T05:47:20;101034.03;;;6.14;100.00
26087;BME280;13851;43.434;28.338;2022-12-29T05:49:46;101058.72;;;6.34;100.00
26087;BME280;13851;43.434;28.338;2022-12-29T05:52:40;101077.94;;;6.87;100.00
26087;BME280;13851;43.434;28.338;2022-12-29T05:55:06;101073.78;;;7.03;100.00
26087;BME280;13851;43.434;28.338;2022-12-29T05:57:32;101068.94;;;7.07;100.00
26087;BME280;13851;43.434;28.338;2022-12-29T05:59:57;101103.09;;;7.11;100.00
26087;BME280;13851;43.434;28.338;2022-12-29T06:02:23;101064.28;;;6.98;100.00
26087;BME280;13851;43.434;28.338;2022-12-29T06:04:48;101060.03;;;7.05;100.00
26087;BME280;13851;43.434;28.338;2022-12-29T06:07:14;101063.69;;;7.15;100.00
26087;BME280;13851;43.434;28.338;2022-12-29T06:09:39;100806.88;;;5.65;100.00
26087;BME280;13851;43.434;28.338;2022-12-29T06:12:05;101052.41;;;6.88;100.00
26087;BME280;13851;43.434;28.338;2022-12-29T06:14:31;100809.97;;;5.61;100.00
26087;BME280;13851;43.434;28.338;2022-12-29T06:16:56;100852.28;;;5.97;100.00
26087;BME280;13851;43.434;28.338;2022-12-29T06:19:22;101052.59;;;7.07;100.00
26087;BME280;13851;43.434;28.338;2022-12-29T06:21:47;100808.53;;;5.89;100.00
26087;BME280;13851;43.434;28.338;2022-12-29T06:24:13;100741.91;;;4.74;100.00
26087;BME280;13851;43.434;28.338;2022-12-29T06:26:38;101017.41;;;6.83;100.00
26087;BME280;13851;43.434;28.338;2022-12-29T06:29:06;101035.22;;;6.87;100.00
26087;BME280;13851;43.434;28.338;2022-12-29T06:31:33;100769.16;;;5.29;100.00
26087;BME280;13851;43.434;28.338;2022-12-29T06:34:24;101044.97;;;6.90;100.00
26087;BME280;13851;43.434;28.338;2022-12-29T06:36:50;101034.75;;;6.82;100.00
26087;BME280;13851;43.434;28.338;2022-12-29T06:39:16;101041.34;;;7.00;100.00
26087;BME280;13851;43.434;28.338;2022-12-29T06:41:41;101076.13;;;7.08;100.00
26087;BME280;13851;43.434;28.338;2022-12-29T06:44:07;101061.25;;;7.12;100.00
26087;BME280;13851;43.434;28.338;2022-12-29T06:46:32;101044.63;;;7.15;100.00
26087;BME280;13851;43.434;28.338;2022-12-29T06:48:58;101068.31;;;7.36;100.00
26087;BME280;13851;43.434;28.338;2022-12-29T06:51:24;101044.63;;;7.36;100.00
26087;BME280;13851;43.434;28.338;2022-12-29T06:53:49;101030.41;;;7.53;100.00
26087;BME280;13851;43.434;28.338;2022-12-29T06:56:15;100999.91;;;7.39;100.00
26087;BME280;13851;43.434;28.338;2022-12-29T06:58:40;101042.16;;;7.75;100.00
26087;BME280;13851;43.434;28.338;2022-12-29T07:01:06;101046.47;;;7.77;100.00
26087;BME280;13851;43.434;28.338;2022-12-29T07:03:32;101069.97;;;7.90;100.00
26087;BME280;13851;43.434;28.338;2022-12-29T07:05:57;101005.19;;;7.92;100.00
26087;BME280;13851;43.434;28.338;2022-12-29T07:08:23;101020.06;;;8.08;100.00
26087;BME280;13851;43.434;28.338;2022-12-29T07:10:49;101073.72;;;8.50;100.00
26087;BME280;13851;43.434;28.338;2022-12-29T07:13:14;101087.38;;;8.50;100.00
26087;BME280;13851;43.434;28.338;2022-12-29T07:15:40;101035.50;;;8.19;100.00
26087;BME280;13851;43.434;28.338;2022-12-29T07:18:05;101038.34;;;8.18;100.00
26087;BME280;13851;43.434;28.338;2022-12-29T07:20:31;101043.78;;;8.18;100.00
26087;BME280;13851;43.434;28.338;2022-12-29T07:22:57;101064.81;;;8.27;100.00
26087;BME280;13851;43.434;28.338;2022-12-29T07:25:23;101062.38;;;8.33;100.00
26087;BME280;13851;43.434;28.338;2022-12-29T07:27:49;101034.94;;;8.25;100.00
26087;BME280;13851;43.434;28.338;2022-12-29T07:30:14;101059.81;;;8.32;100.00
26087;BME280;13851;43.434;28.338;2022-12-29T07:32:40;100989.94;;;7.79;100.00
26087;BME280;13851;43.434;28.338;2022-12-29T07:35:06;101045.88;;;7.95;100.00
26087;BME280;13851;43.434;28.338;2022-12-29T07:37:32;101031.41;;;8.04;100.00
26087;BME280;13851;43.434;28.338;2022-12-29T07:39:57;101047.44;;;7.97;100.00
26087;BME280;13851;43.434;28.338;2022-12-29T07:42:23;101020.03;;;7.99;100.00
26087;BME280;13851;43.434;28.338;2022-12-29T07:44:48;101020.72;;;8.31;100.00
26087;BME280;13851;43.434;28.338;2022-12-29T07:47:14;100690.94;;;6.38;100.00
26087;BME280;13851;43.434;28.338;2022-12-29T07:49:39;101073.72;;;8.50;100.00
26087;BME280;13851;43.434;28.338;2022-12-29T07:52:05;101066.69;;;8.57;100.00
26087;BME280;13851;43.434;28.338;2022-12-29T07:54:30;101045.66;;;8.48;100.00
26087;BME280;13851;43.434;28.338;2022-12-29T07:56:56;101033.66;;;8.29;100.00
26087;BME280;13851;43.434;28.338;2022-12-29T07:59:22;101093.81;;;8.49;100.00
26087;BME280;13851;43.434;28.338;2022-12-29T08:01:48;101053.69;;;8.49;100.00
26087;BME280;13851;43.434;28.338;2022-12-29T08:04:13;101026.41;;;8.40;100.00
26087;BME280;13851;43.434;28.338;2022-12-29T08:06:39;101061.84;;;8.70;100.00
26087;BME280;13851;43.434;28.338;2022-12-29T08:09:04;101051.16;;;8.57;100.00
26087;BME280;13851;43.434;28.338;2022-12-29T08:11:30;101051.19;;;8.77;100.00
26087;BME280;13851;43.434;28.338;2022-12-29T08:13:55;101108.47;;;8.98;100.00
26087;BME280;13851;43.434;28.338;2022-12-29T08:16:21;101075.94;;;8.95;100.00
26087;BME280;13851;43.434;28.338;2022-12-29T08:18:46;101066.47;;;9.18;100.00
26087;BME280;13851;43.434;28.338;2022-12-29T08:21:12;101052.94;;;8.97;100.00
26087;BME280;13851;43.434;28.338;2022-12-29T08:23:38;101067.91;;;9.03;100.00
26087;BME280;13851;43.434;28.338;2022-12-29T08:26:05;101068.19;;;9.00;100.00
26087;BME280;13851;43.434;28.338;2022-12-29T08:28:31;101077.41;;;9.28;100.00
26087;BME280;13851;43.434;28.338;2022-12-29T08:30:58;101068.19;;;9.38;100.00
26087;BME280;13851;43.434;28.338;2022-12-29T08:33:26;100864.22;;;8.02;100.00
26087;BME280;13851;43.434;28.338;2022-12-29T08:35:51;100805.75;;;7.95;100.00
26087;BME280;13851;43.434;28.338;2022-12-29T08:38:16;101041.28;;;9.34;100.00
26087;BME280;13851;43.434;28.338;2022-12-29T08:40:43;101078.97;;;9.50;100.00
26087;BME280;13851;43.434;28.338;2022-12-29T08:43:09;101026.31;;;9.48;100.00
26087;BME280;13851;43.434;28.338;2022-12-29T08:45:36;100874.31;;;8.69;100.00
26087;BME280;13851;43.434;28.338;2022-12-29T08:48:02;101028.50;;;9.81;100.00
26087;BME280;13851;43.434;28.338;2022-12-29T08:50:28;101008.44;;;9.63;100.00
26087;BME280;13851;43.434;28.338;2022-12-29T08:52:53;100790.53;;;8.21;100.00
26087;BME280;13851;43.434;28.338;2022-12-29T08:55:22;100795.00;;;8.22;100.00
26087;BME280;13851;43.434;28.338;2022-12-29T08:57:47;101018.66;;;9.42;100.00
26087;BME280;13851;43.434;28.338;2022-12-29T09:00:13;101029.56;;;9.71;100.00
26087;BME280;13851;43.434;28.338;2022-12-29T09:02:40;100746.44;;;7.97;100.00
26087;BME280;13851;43.434;28.338;2022-12-29T09:05:05;101005.41;;;9.47;100.00
26087;BME280;13851;43.434;28.338;2022-12-29T09:07:31;101067.34;;;9.48;100.00
26087;BME280;13851;43.434;28.338;2022-12-29T09:09:57;101033.94;;;9.34;100.00
26087;BME280;13851;43.434;28.338;2022-12-29T09:12:22;101037.09;;;9.40;100.00
26087;BME280;13851;43.434;28.338;2022-12-29T09:14:48;101043.75;;;9.37;100.00
26087;BME280;13851;43.434;28.338;2022-12-29T09:17:13;101072.38;;;9.33;100.00
26087;BME280;13851;43.434;28.338;2022-12-29T09:19:57;101022.56;;;9.39;100.00
26087;BME280;13851;43.434;28.338;2022-12-29T09:22:22;101014.63;;;9.55;100.00
26087;BME280;13851;43.434;28.338;2022-12-29T09:24:48;100985.13;;;9.40;100.00
26087;BME280;13851;43.434;28.338;2022-12-29T09:27:13;100981.81;;;9.36;100.00
26087;BME280;13851;43.434;28.338;2022-12-29T09:29:39;100941.31;;;9.12;100.00
26087;BME280;13851;43.434;28.338;2022-12-29T09:32:04;101004.56;;;9.46;100.00
26087;BME280;13851;43.434;28.338;2022-12-29T09:34:30;100744.88;;;7.85;100.00
26087;BME280;13851;43.434;28.338;2022-12-29T09:36:55;101006.00;;;9.41;100.00
26087;BME280;13851;43.434;28.338;2022-12-29T09:39:24;100973.94;;;9.23;100.00
26087;BME280;13851;43.434;28.338;2022-12-29T09:42:01;100970.06;;;9.16;100.00
26087;BME280;13851;43.434;28.338;2022-12-29T09:47:13;100973.78;;;9.25;100.00
26087;BME280;13851;43.434;28.338;2022-12-29T09:52:23;101010.44;;;9.51;100.00
26087;BME280;13851;43.434;28.338;2022-12-29T09:55:04;100750.78;;;7.99;100.00
26087;BME280;13851;43.434;28.338;2022-12-29T09:57:41;100966.00;;;9.40;100.00
26087;BME280;13851;43.434;28.338;2022-12-29T10:00:40;100991.31;;;9.42;100.00
26087;BME280;13851;43.434;28.338;2022-12-29T10:03:16;101009.34;;;9.15;100.00
26087;BME280;13851;43.434;28.338;2022-12-29T10:08:53;100988.13;;;9.56;100.00
26087;BME280;13851;43.434;28.338;2022-12-29T10:25:22;100739.44;;;8.04;100.00
26087;BME280;13851;43.434;28.338;2022-12-29T10:27:49;100976.03;;;9.58;100.00
26087;BME280;13851;43.434;28.338;2022-12-29T10:30:16;100965.38;;;9.55;100.00
26087;BME280;13851;43.434;28.338;2022-12-29T10:33:08;100964.34;;;9.66;100.00
26087;BME280;13851;43.434;28.338;2022-12-29T10:35:39;100950.16;;;9.43;100.00
26087;BME280;13851;43.434;28.338;2022-12-29T10:38:25;100959.56;;;9.78;100.00
26087;BME280;13851;43.434;28.338;2022-12-29T10:41:35;100964.19;;;9.68;100.00
26087;BME280;13851;43.434;28.338;2022-12-29T10:44:10;100960.66;;;9.48;100.00
26087;BME280;13851;43.434;28.338;2022-12-29T10:46:38;100996.47;;;9.64;100.00
26087;BME280;13851;43.434;28.338;2022-12-29T10:49:06;100957.84;;;9.67;100.00
26087;BME280;13851;43.434;28.338;2022-12-29T10:51:39;100965.34;;;9.65;100.00
26087;BME280;13851;43.434;28.338;2022-12-29T10:56:43;100921.03;;;9.52;100.00
26087;BME280;13851;43.434;28.338;2022-12-29T10:59:18;100934.69;;;9.99;100.00
26087;BME280;13851;43.434;28.338;2022-12-29T11:01:58;100943.84;;;10.07;100.00
26087;BME280;13851;43.434;28.338;2022-12-29T11:06:57;100987.44;;;9.91;100.00
26087;BME280;13851;43.434;28.338;2022-12-29T11:09:30;100958.91;;;9.94;100.00
26087;BME280;13851;43.434;28.338;2022-12-29T11:11:58;100949.28;;;9.89;100.00
26087;BME280;13851;43.434;28.338;2022-12-29T11:14:30;100957.47;;;9.89;100.00
26087;BME280;13851;43.434;28.338;2022-12-29T11:17:01;100903.13;;;9.67;100.00
26087;BME280;13851;43.434;28.338;2022-12-29T11:19:30;100927.28;;;10.09;100.00
26087;BME280;13851;43.434;28.338;2022-12-29T11:22:29;100956.09;;;10.58;100.00
26087;BME280;13851;43.434;28.338;2022-12-29T11:25:10;100899.59;;;10.39;100.00
26087;BME280;13851;43.434;28.338;2022-12-29T11:27:37;100944.50;;;10.47;100.00
26087;BME280;13851;43.434;28.338;2022-12-29T11:30:22;100911.84;;;10.53;100.00
26087;BME280;13851;43.434;28.338;2022-12-29T11:32:54;100878.25;;;10.33;100.00
26087;BME280;13851;43.434;28.338;2022-12-29T11:35:36;100944.66;;;10.63;100.00
26087;BME280;13851;43.434;28.338;2022-12-29T11:38:04;100753.91;;;9.27;100.00
26087;BME280;13851;43.434;28.338;2022-12-29T11:40:31;100901.06;;;10.34;100.00
26087;BME280;13851;43.434;28.338;2022-12-29T11:43:00;100694.22;;;9.41;100.00
26087;BME280;13851;43.434;28.338;2022-12-29T11:45:45;100913.34;;;10.83;100.00
26087;BME280;13851;43.434;28.338;2022-12-29T11:48:21;100655.19;;;9.48;100.00
26087;BME280;13851;43.434;28.338;2022-12-29T11:50:55;100895.63;;;10.96;100.00
26087;BME280;13851;43.434;28.338;2022-12-29T11:53:27;100881.59;;;10.99;100.00
26087;BME280;13851;43.434;28.338;2022-12-29T11:55:59;100541.75;;;8.99;100.00
26087;BME280;13851;43.434;28.338;2022-12-29T11:58:31;100932.09;;;11.14;100.00
26087;BME280;13851;43.434;28.338;2022-12-29T12:01:23;100954.78;;;11.24;100.00
26087;BME280;13851;43.434;28.338;2022-12-29T12:03:59;100723.94;;;10.43;100.00
26087;BME280;13851;43.434;28.338;2022-12-29T12:06:27;100900.06;;;11.75;100.00
26087;BME280;13851;43.434;28.338;2022-12-29T12:08:57;100921.84;;;11.76;100.00
26087;BME280;13851;43.434;28.338;2022-12-29T12:11:28;100857.22;;;11.48;100.00
26087;BME280;13851;43.434;28.338;2022-12-29T12:14:07;100062.16;;;6.77;100.00
26087;BME280;13851;43.434;28.338;2022-12-29T12:16:42;100852.91;;;11.45;100.00
26087;BME280;13851;43.434;28.338;2022-12-29T12:21:40;100916.41;;;11.50;100.00
26087;BME280;13851;43.434;28.338;2022-12-29T12:24:48;100875.63;;;11.29;100.00
26087;BME280;13851;43.434;28.338;2022-12-29T12:27:23;100889.94;;;11.41;100.00
26087;BME280;13851;43.434;28.338;2022-12-29T12:29:59;100949.75;;;11.37;100.00
26087;BME280;13851;43.434;28.338;2022-12-29T12:35:44;100895.50;;;11.05;100.00
26087;BME280;13851;43.434;28.338;2022-12-29T12:59:47;100945.75;;;10.88;100.00
26087;BME280;13851;43.434;28.338;2022-12-29T13:02:33;100874.13;;;10.47;100.00
26087;BME280;13851;43.434;28.338;2022-12-29T13:13:59;100940.19;;;10.80;100.00
26087;BME280;13851;43.434;28.338;2022-12-29T13:16:54;100910.22;;;10.43;100.00
26087;BME280;13851;43.434;28.338;2022-12-29T13:27:13;100919.44;;;9.12;100.00
26087;BME280;13851;43.434;28.338;2022-12-29T13:29:59;100912.38;;;9.09;100.00
26087;BME280;13851;43.434;28.338;2022-12-29T13:37:53;100846.19;;;9.16;100.00
26087;BME280;13851;43.434;28.338;2022-12-29T13:40:23;100912.09;;;9.59;100.00
26087;BME280;13851;43.434;28.338;2022-12-29T13:42:52;100871.81;;;9.79;100.00
26087;BME280;13851;43.434;28.338;2022-12-29T13:45:24;100900.09;;;9.98;100.00
26087;BME280;13851;43.434;28.338;2022-12-29T13:48:17;100896.59;;;10.05;100.00
26087;BME280;13851;43.434;28.338;2022-12-29T13:50:51;100875.72;;;9.49;100.00
26087;BME280;13851;43.434;28.338;2022-12-29T13:56:10;100930.81;;;9.17;100.00
26087;BME280;13851;43.434;28.338;2022-12-29T13:58:47;100849.28;;;8.83;100.00
26087;BME280;13851;43.434;28.338;2022-12-29T14:01:32;100897.16;;;9.07;100.00
26087;BME280;13851;43.434;28.338;2022-12-29T14:04:11;100879.91;;;8.87;100.00
26087;BME280;13851;43.434;28.338;2022-12-29T14:06:37;100890.28;;;8.74;100.00
26087;BME280;13851;43.434;28.338;2022-12-29T14:09:36;100895.63;;;8.75;100.00
26087;BME280;13851;43.434;28.338;2022-12-29T14:12:19;100726.91;;;7.72;100.00
26087;BME280;13851;43.434;28.338;2022-12-29T14:14:46;100837.41;;;8.46;100.00
26087;BME280;13851;43.434;28.338;2022-12-29T14:17:12;100884.13;;;8.72;100.00
26087;BME280;13851;43.434;28.338;2022-12-29T14:19:43;100904.50;;;8.97;100.00
26087;BME280;13851;43.434;28.338;2022-12-29T14:22:10;100866.28;;;8.68;100.00
26087;BME280;13851;43.434;28.338;2022-12-29T14:24:42;100902.78;;;8.96;100.00
26087;BME280;13851;43.434;28.338;2022-12-29T14:29:46;100939.88;;;8.89;100.00
26087;BME280;13851;43.434;28.338;2022-12-29T14:34:47;100871.75;;;8.68;100.00
26087;BME280;13851;43.434;28.338;2022-12-29T14:37:27;100870.03;;;8.47;100.00
26087;BME280;13851;43.434;28.338;2022-12-29T14:40:17;100917.75;;;8.72;100.00
26087;BME280;13851;43.434;28.338;2022-12-29T14:42:44;100667.75;;;7.24;100.00
26087;BME280;13851;43.434;28.338;2022-12-29T14:47:41;100736.97;;;7.72;100.00